createdAt,value
2023-02-11T00:00:09.751Z,22.4500
2023-02-11T00:01:12.224Z,22.4500
2023-02-11T00:02:12.595Z,22.4400
2023-02-11T00:03:15.075Z,22.4400
2023-02-11T00:04:17.369Z,22.4400
2023-02-11T00:05:19.821Z,22.4400
2023-02-11T00:06:22.249Z,22.4300
2023-02-11T00:07:22.442Z,22.4300
2023-02-11T00:08:24.840Z,22.4500
2023-02-11T00:09:27.294Z,22.4500
2023-02-11T00:10:29.740Z,22.4500
2023-02-11T00:11:32.146Z,22.4500
2023-02-11T00:12:32.421Z,22.4600
2023-02-11T00:13:34.862Z,22.4600
2023-02-11T00:14:37.265Z,22.4700
2023-02-11T00:15:39.660Z,22.4600
2023-02-11T00:16:42.124Z,22.4700
2023-02-11T00:17:42.310Z,22.4700
2023-02-11T00:18:44.691Z,22.4400
2023-02-11T00:19:47.111Z,22.4600
2023-02-11T00:20:49.501Z,22.4600
2023-02-11T00:21:51.939Z,22.4600
2023-02-11T00:22:52.155Z,22.4600
2023-02-11T00:23:54.564Z,22.4400
2023-02-11T00:24:56.984Z,22.4500
2023-02-11T00:25:57.259Z,22.4400
2023-02-11T00:26:59.761Z,22.4500
2023-02-11T00:28:02.138Z,22.4500
2023-02-11T00:29:04.426Z,22.4600
2023-02-11T00:30:06.824Z,22.4600
2023-02-11T00:31:07.217Z,22.4500
2023-02-11T00:32:09.476Z,22.4400
2023-02-11T00:33:11.859Z,22.4300
2023-02-11T00:34:12.093Z,22.4300
2023-02-11T00:35:14.467Z,22.4400
2023-02-11T00:36:16.891Z,22.4500
2023-02-11T00:37:19.309Z,22.4600
2023-02-11T00:38:21.698Z,22.4600
2023-02-11T00:39:21.919Z,22.4500
2023-02-11T00:40:24.336Z,22.4500
2023-02-11T00:41:26.789Z,22.4400
2023-02-11T00:42:27.063Z,22.4400
2023-02-11T00:43:29.386Z,22.4500
2023-02-11T00:44:31.783Z,22.4500
2023-02-11T00:45:34.169Z,22.4400
2023-02-11T00:46:36.615Z,22.4600
2023-02-11T00:47:36.878Z,22.4500
2023-02-11T00:48:39.182Z,22.4400
2023-02-11T00:49:41.520Z,22.4400
2023-02-11T00:50:41.777Z,22.4300
2023-02-11T00:51:44.171Z,22.4300
2023-02-11T00:52:46.612Z,22.4300
2023-02-11T00:53:46.849Z,22.4300
2023-02-11T00:54:49.295Z,22.4400
2023-02-11T00:55:49.892Z,22.4400
2023-02-11T00:56:52.083Z,22.4400
2023-02-11T00:57:54.550Z,22.4400
2023-02-11T00:58:54.846Z,22.4500
2023-02-11T00:59:57.251Z,22.4400
2023-02-11T01:00:59.663Z,22.4400
2023-02-11T01:02:02.036Z,22.4300
2023-02-11T01:03:04.461Z,22.4300
2023-02-11T01:04:04.716Z,22.4400
2023-02-11T01:05:07.227Z,22.4500
2023-02-11T01:06:07.471Z,22.4400
2023-02-11T01:07:09.899Z,22.4400
2023-02-11T01:08:12.357Z,22.4400
2023-02-11T01:09:12.635Z,22.4300
2023-02-11T01:10:15.067Z,22.4400
2023-02-11T01:11:17.494Z,22.4400
2023-02-11T01:12:19.946Z,22.4300
2023-02-11T01:13:22.346Z,22.4400
2023-02-11T01:14:22.534Z,22.4400
2023-02-11T01:15:24.944Z,22.4500
2023-02-11T01:16:27.489Z,22.4300
2023-02-11T01:17:29.735Z,22.4400
2023-02-11T01:18:32.174Z,22.4300
2023-02-11T01:19:32.365Z,22.4400
2023-02-11T01:20:34.755Z,22.4300
2023-02-11T01:21:37.144Z,22.4400
2023-02-11T01:22:37.318Z,22.4300
2023-02-11T01:23:39.707Z,22.4300
2023-02-11T01:24:42.080Z,22.4500
2023-02-11T01:25:42.369Z,22.4600
2023-02-11T01:26:44.767Z,22.4500
2023-02-11T01:27:47.194Z,22.4500
2023-02-11T01:28:49.626Z,22.4600
2023-02-11T01:29:51.996Z,22.4600
2023-02-11T01:30:52.284Z,22.4400
2023-02-11T01:31:54.711Z,22.4400
2023-02-11T01:32:57.094Z,22.4400
2023-02-11T01:33:57.348Z,22.4300
2023-02-11T01:34:59.693Z,22.4400
2023-02-11T01:36:02.085Z,22.4300
2023-02-11T01:37:04.486Z,22.4300
2023-02-11T01:38:06.893Z,22.4500
2023-02-11T01:39:07.198Z,22.4500
2023-02-11T01:40:09.598Z,22.4500
2023-02-11T01:41:12.021Z,22.4500
2023-02-11T01:42:14.461Z,22.4400
2023-02-11T01:43:16.928Z,22.4500
2023-02-11T01:44:17.207Z,22.4600
2023-02-11T01:45:19.647Z,22.4600
2023-02-11T01:46:22.095Z,22.4500
2023-02-11T01:47:24.468Z,22.4400
2023-02-11T01:48:26.912Z,22.4400
2023-02-11T01:49:29.427Z,22.4400
2023-02-11T01:50:31.776Z,22.4400
2023-02-11T01:51:32.052Z,22.4300
2023-02-11T01:52:34.424Z,22.4200
2023-02-11T01:53:36.821Z,22.4200
2023-02-11T01:54:37.094Z,22.4200
2023-02-11T01:55:39.449Z,22.4200
2023-02-11T01:56:41.868Z,22.4200
2023-02-11T01:57:44.286Z,22.4400
2023-02-11T01:58:46.704Z,22.4400
2023-02-11T01:59:46.941Z,22.4300
2023-02-11T02:00:49.291Z,22.4300
2023-02-11T02:01:51.709Z,22.4600
2023-02-11T02:02:51.925Z,22.4500
2023-02-11T02:03:54.505Z,22.4400
2023-02-11T02:04:56.696Z,22.4500
2023-02-11T02:05:56.920Z,22.4500
2023-02-11T02:06:59.332Z,22.4500
2023-02-11T02:08:01.719Z,22.4400
2023-02-11T02:09:04.116Z,22.4400
2023-02-11T02:10:06.553Z,22.4400
2023-02-11T02:11:06.765Z,22.4400
2023-02-11T02:12:09.154Z,22.4300
2023-02-11T02:13:11.531Z,22.4300
2023-02-11T02:14:11.740Z,22.4200
2023-02-11T02:15:14.144Z,22.4300
2023-02-11T02:16:16.531Z,22.4300
2023-02-11T02:17:16.665Z,22.4500
2023-02-11T02:18:19.029Z,22.4600
2023-02-11T02:19:21.408Z,22.4500
2023-02-11T02:20:21.609Z,22.4500
2023-02-11T02:21:23.946Z,22.4500
2023-02-11T02:22:26.315Z,22.4400
2023-02-11T02:23:26.496Z,22.4300
2023-02-11T02:24:28.872Z,22.4200
2023-02-11T02:25:31.331Z,22.4300
2023-02-11T02:26:31.578Z,22.4300
2023-02-11T02:27:34.020Z,22.4400
2023-02-11T02:28:36.442Z,22.4400
2023-02-11T02:29:38.867Z,22.4700
2023-02-11T02:30:41.370Z,22.4700
2023-02-11T02:31:41.556Z,22.4600
2023-02-11T02:32:43.878Z,22.4600
2023-02-11T02:33:46.307Z,22.4600
2023-02-11T02:34:48.719Z,22.4600
2023-02-11T02:35:51.543Z,22.4700
2023-02-11T02:36:51.423Z,22.4600
2023-02-11T02:37:53.833Z,22.4600
2023-02-11T02:38:56.192Z,22.4600
2023-02-11T02:39:56.486Z,22.4700
2023-02-11T02:40:58.941Z,22.4600
2023-02-11T02:41:59.208Z,22.4600
2023-02-11T02:43:01.617Z,22.4600
2023-02-11T02:44:04.042Z,22.4500
2023-02-11T02:45:04.320Z,22.4400
2023-02-11T02:46:06.761Z,22.4300
2023-02-11T02:47:09.093Z,22.4400
2023-02-11T02:48:09.363Z,22.4700
2023-02-11T02:49:11.809Z,22.4800
2023-02-11T02:50:12.119Z,22.4900
2023-02-11T02:51:14.565Z,22.5000
2023-02-11T02:52:16.964Z,22.4800
2023-02-11T02:53:17.204Z,22.4800
2023-02-11T02:54:19.619Z,22.4700
2023-02-11T02:55:22.058Z,22.4600
2023-02-11T02:56:24.547Z,22.4800
2023-02-11T02:57:26.948Z,22.4700
2023-02-11T02:58:27.242Z,22.4700
2023-02-11T02:59:29.642Z,22.4700
2023-02-11T03:00:32.088Z,22.4600
2023-02-11T03:01:34.539Z,22.4700
2023-02-11T03:02:36.793Z,22.4900
2023-02-11T03:03:37.072Z,22.4800
2023-02-11T03:04:39.380Z,22.4900
2023-02-11T03:05:41.765Z,22.4800
2023-02-11T03:06:42.003Z,22.4700
2023-02-11T03:07:44.337Z,22.4600
2023-02-11T03:08:46.668Z,22.4600
2023-02-11T03:09:46.843Z,22.4500
2023-02-11T03:10:49.185Z,22.4500
2023-02-11T03:11:51.613Z,22.4500
2023-02-11T03:12:53.935Z,22.4300
2023-02-11T03:13:56.299Z,22.4400
2023-02-11T03:14:58.626Z,22.4300
2023-02-11T03:15:58.875Z,22.4400
2023-02-11T03:17:01.200Z,22.4500
2023-02-11T03:18:03.538Z,22.4600
2023-02-11T03:19:03.760Z,22.4500
2023-02-11T03:20:06.130Z,22.4500
2023-02-11T03:21:08.483Z,22.4500
2023-02-11T03:22:08.821Z,22.4500
2023-02-11T03:23:11.054Z,22.4600
2023-02-11T03:24:13.434Z,22.4500
2023-02-11T03:25:13.669Z,22.4500
2023-02-11T03:26:15.983Z,22.4400
2023-02-11T03:27:18.350Z,22.4400
2023-02-11T03:28:20.730Z,22.4400
2023-02-11T03:29:23.030Z,22.4400
2023-02-11T03:30:25.374Z,22.4400
2023-02-11T03:31:25.746Z,22.4400
2023-02-11T03:32:27.957Z,22.4500
2023-02-11T03:33:30.323Z,22.4400
2023-02-11T03:34:30.530Z,22.4400
2023-02-11T03:35:32.909Z,22.4500
2023-02-11T03:36:35.255Z,22.4500
2023-02-11T03:37:35.607Z,22.4600
2023-02-11T03:38:37.877Z,22.4700
2023-02-11T03:39:40.274Z,22.4700
2023-02-11T03:40:40.539Z,22.4600
2023-02-11T03:41:42.948Z,22.4600
2023-02-11T03:42:45.371Z,22.4700
2023-02-11T03:43:45.617Z,22.4700
2023-02-11T03:44:48.068Z,22.4500
2023-02-11T03:45:50.882Z,22.4500
2023-02-11T03:46:52.910Z,22.4500
2023-02-11T03:47:55.356Z,22.4600
2023-02-11T03:48:55.601Z,22.4400
2023-02-11T03:49:58.057Z,22.4400
2023-02-11T03:50:58.331Z,22.4400
2023-02-11T03:52:00.771Z,22.4400
2023-02-11T03:53:03.165Z,22.4400
2023-02-11T03:54:03.411Z,22.4500
2023-02-11T03:55:05.833Z,22.4700
2023-02-11T03:56:08.223Z,22.4700
2023-02-11T03:57:10.624Z,22.4600
2023-02-11T03:58:13.012Z,22.4500
2023-02-11T03:59:13.237Z,22.4500
2023-02-11T04:00:15.640Z,22.4400
2023-02-11T04:01:18.141Z,22.4500
2023-02-11T04:02:18.347Z,22.4300
2023-02-11T04:03:20.892Z,22.4200
2023-02-11T04:04:23.185Z,22.4100
2023-02-11T04:05:25.622Z,22.4100
2023-02-11T04:06:28.047Z,22.4000
2023-02-11T04:07:28.357Z,22.4200
2023-02-11T04:08:30.812Z,22.4200
2023-02-11T04:09:33.176Z,22.4200
2023-02-11T04:10:35.556Z,22.4200
2023-02-11T04:11:37.936Z,22.4100
2023-02-11T04:12:38.119Z,22.4200
2023-02-11T04:13:40.583Z,22.4400
2023-02-11T04:14:42.909Z,22.4300
2023-02-11T04:15:43.136Z,22.4300
2023-02-11T04:16:45.577Z,22.4100
2023-02-11T04:17:55.403Z,22.4100
2023-02-11T04:18:48.065Z,22.4100
2023-02-11T04:19:50.403Z,22.4200
2023-02-11T04:20:52.774Z,22.4300
2023-02-11T04:21:53.008Z,22.4300
2023-02-11T04:22:55.371Z,22.4400
2023-02-11T04:23:57.791Z,22.4200
2023-02-11T04:24:57.976Z,22.4200
2023-02-11T04:26:00.313Z,22.4400
2023-02-11T04:27:02.680Z,22.4400
2023-02-11T04:28:02.948Z,22.4400
2023-02-11T04:29:05.333Z,22.4300
2023-02-11T04:30:07.718Z,22.4300
2023-02-11T04:31:07.954Z,22.4300
2023-02-11T04:32:10.435Z,22.4300
2023-02-11T04:33:12.801Z,22.4300
2023-02-11T04:34:15.237Z,22.4300
2023-02-11T04:35:17.638Z,22.4400
2023-02-11T04:36:17.936Z,22.4500
2023-02-11T04:37:20.330Z,22.4500
2023-02-11T04:38:22.763Z,22.4500
2023-02-11T04:39:25.222Z,22.4500
2023-02-11T04:40:27.610Z,22.4500
2023-02-11T04:41:27.869Z,22.4800
2023-02-11T04:42:30.289Z,22.4700
2023-02-11T04:43:32.713Z,22.4700
2023-02-11T04:44:35.194Z,22.4500
2023-02-11T04:45:37.632Z,22.4600
2023-02-11T04:46:37.822Z,22.4700
2023-02-11T04:47:40.258Z,22.4800
2023-02-11T04:48:42.703Z,22.4800
2023-02-11T04:49:45.113Z,22.4600
2023-02-11T04:50:47.487Z,22.4600
2023-02-11T04:51:49.388Z,22.4500
2023-02-11T04:52:50.158Z,22.4600
2023-02-11T04:53:52.570Z,22.4700
2023-02-11T04:54:54.991Z,22.4500
2023-02-11T04:55:57.386Z,22.4600
2023-02-11T04:56:57.785Z,22.4600
2023-02-11T04:58:00.111Z,22.4500
2023-02-11T04:59:02.516Z,22.4500
2023-02-11T05:00:04.900Z,22.4400
2023-02-11T05:01:07.374Z,22.4400
2023-02-11T05:02:07.453Z,22.4500
2023-02-11T05:03:09.842Z,22.4600
2023-02-11T05:04:12.305Z,22.4500
2023-02-11T05:05:12.569Z,22.4600
2023-02-11T05:06:14.934Z,22.4600
2023-02-11T05:07:17.373Z,22.4400
2023-02-11T05:08:19.769Z,22.4500
2023-02-11T05:09:22.193Z,22.4600
2023-02-11T05:10:22.444Z,22.4800
2023-02-11T05:11:24.789Z,22.4800
2023-02-11T05:12:27.174Z,22.4800
2023-02-11T05:13:27.450Z,22.4900
2023-02-11T05:14:29.886Z,22.5000
2023-02-11T05:15:32.326Z,22.4900
2023-02-11T05:16:34.721Z,22.4800
2023-02-11T05:17:37.025Z,22.4700
2023-02-11T05:18:37.263Z,22.4700
2023-02-11T05:19:39.688Z,22.4600
2023-02-11T05:20:42.174Z,22.4600
2023-02-11T05:21:53.166Z,22.4500
2023-02-11T05:22:44.644Z,22.4400
2023-02-11T05:23:47.022Z,22.4400
2023-02-11T05:24:47.239Z,22.4400
2023-02-11T05:25:50.094Z,22.4500
2023-02-11T05:26:52.090Z,22.4700
2023-02-11T05:27:54.527Z,22.4800
2023-02-11T05:28:56.954Z,22.4900
2023-02-11T05:29:57.236Z,22.4700
2023-02-11T05:30:59.805Z,22.4800
2023-02-11T05:32:02.085Z,22.4800
2023-02-11T05:33:04.534Z,22.4900
2023-02-11T05:34:06.939Z,22.5000
2023-02-11T05:35:07.226Z,22.4900
2023-02-11T05:36:09.760Z,22.5000
2023-02-11T05:37:12.051Z,22.4900
2023-02-11T05:38:14.437Z,22.4900
2023-02-11T05:39:16.844Z,22.4900
2023-02-11T05:40:17.112Z,22.5000
2023-02-11T05:41:19.620Z,22.5100
2023-02-11T05:42:21.813Z,22.5100
2023-02-11T05:43:22.006Z,22.5300
2023-02-11T05:44:24.355Z,22.5200
2023-02-11T05:45:26.724Z,22.5300
2023-02-11T05:46:26.999Z,22.5400
2023-02-11T05:47:29.249Z,22.5400
2023-02-11T05:48:31.557Z,22.5400
2023-02-11T05:49:31.767Z,22.5400
2023-02-11T05:50:34.147Z,22.5200
2023-02-11T05:51:36.516Z,22.5300
2023-02-11T05:52:38.850Z,22.5300
2023-02-11T05:53:41.197Z,22.5100
2023-02-11T05:54:43.580Z,22.5300
2023-02-11T05:55:43.792Z,22.5400
2023-02-11T05:56:46.213Z,22.5100
2023-02-11T05:57:48.572Z,22.5200
2023-02-11T05:58:48.789Z,22.5100
2023-02-11T05:59:51.166Z,22.5100
2023-02-11T06:00:53.524Z,22.5200
2023-02-11T06:01:53.756Z,22.5200
2023-02-11T06:02:56.188Z,22.5100
2023-02-11T06:03:58.550Z,22.5200
2023-02-11T06:04:58.748Z,22.5300
2023-02-11T06:06:01.155Z,22.5400
2023-02-11T06:07:03.614Z,22.5400
2023-02-11T06:08:03.704Z,22.5400
2023-02-11T06:09:06.115Z,22.5400
2023-02-11T06:10:08.502Z,22.5400
2023-02-11T06:11:10.910Z,22.5400
2023-02-11T06:12:13.342Z,22.5300
2023-02-11T06:13:13.592Z,22.5500
2023-02-11T06:14:15.931Z,22.5500
2023-02-11T06:15:18.345Z,22.5400
2023-02-11T06:16:18.598Z,22.5500
2023-02-11T06:17:21.015Z,22.5700
2023-02-11T06:18:23.372Z,22.5600
2023-02-11T06:19:23.605Z,22.5600
2023-02-11T06:20:26.027Z,22.5600
2023-02-11T06:21:42.529Z,22.5600
2023-02-11T06:22:30.885Z,22.5700
2023-02-11T06:23:33.212Z,22.5600
2023-02-11T06:24:58.595Z,22.5600
2023-02-11T06:25:35.811Z,22.5700
2023-02-11T06:26:38.179Z,22.5600
2023-02-11T06:27:38.457Z,22.5700
2023-02-11T06:28:42.110Z,22.5700
2023-02-11T06:29:43.174Z,22.5600
2023-02-11T06:30:43.421Z,22.5500
2023-02-11T06:31:46.015Z,22.5700
2023-02-11T06:32:48.321Z,22.5600
2023-02-11T06:33:48.354Z,22.5600
2023-02-11T06:34:50.729Z,22.5500
2023-02-11T06:35:53.260Z,22.5600
2023-02-11T06:36:53.344Z,22.5600
2023-02-11T06:37:55.772Z,22.5600
2023-02-11T06:38:58.017Z,22.5600
2023-02-11T06:39:58.290Z,22.5600
2023-02-11T06:41:00.666Z,22.5800
2023-02-11T06:42:03.061Z,22.5700
2023-02-11T06:43:05.493Z,22.5900
2023-02-11T06:44:07.836Z,22.5800
2023-02-11T06:45:08.093Z,22.5800
2023-02-11T06:46:10.498Z,22.5700
2023-02-11T06:47:12.791Z,22.5700
2023-02-11T06:48:13.017Z,22.5700
2023-02-11T06:49:15.390Z,22.5800
2023-02-11T06:50:17.756Z,22.5800
2023-02-11T06:51:17.983Z,22.5800
2023-02-11T06:52:20.361Z,22.5800
2023-02-11T06:53:22.715Z,22.5800
2023-02-11T06:54:22.934Z,22.5800
2023-02-11T06:55:25.378Z,22.5800
2023-02-11T06:56:27.868Z,22.5900
2023-02-11T06:57:28.080Z,22.5900
2023-02-11T06:58:30.551Z,22.5900
2023-02-11T06:59:32.935Z,22.5800
2023-02-11T07:00:35.350Z,22.5800
2023-02-11T07:01:37.830Z,22.5800
2023-02-11T07:02:38.126Z,22.5900
2023-02-11T07:03:40.628Z,22.5700
2023-02-11T07:04:40.830Z,22.5800
2023-02-11T07:05:43.268Z,22.5900
2023-02-11T07:06:45.718Z,22.6000
2023-02-11T07:07:46.029Z,22.5900
2023-02-11T07:08:48.494Z,22.5900
2023-02-11T07:09:48.750Z,22.5800
2023-02-11T07:10:51.195Z,22.5900
2023-02-11T07:11:53.656Z,22.5700
2023-02-11T07:12:53.900Z,22.5800
2023-02-11T07:13:56.315Z,22.6000
2023-02-11T07:14:58.669Z,22.6100
2023-02-11T07:16:01.052Z,22.6200
2023-02-11T07:17:03.432Z,22.6300
2023-02-11T07:18:03.645Z,22.6300
2023-02-11T07:19:06.009Z,22.6400
2023-02-11T07:20:08.283Z,22.6400
2023-02-11T07:21:10.598Z,22.6200
2023-02-11T07:22:12.928Z,22.6100
2023-02-11T07:23:15.305Z,22.6100
2023-02-11T07:24:17.639Z,22.6200
2023-02-11T07:25:19.997Z,22.6200
2023-02-11T07:26:22.389Z,22.6200
2023-02-11T07:27:22.607Z,22.6200
2023-02-11T07:28:25.079Z,22.6400
2023-02-11T07:29:27.416Z,22.6400
2023-02-11T07:30:27.592Z,22.6400
2023-02-11T07:31:30.180Z,22.6600
2023-02-11T07:32:32.334Z,22.6600
2023-02-11T07:33:32.563Z,22.6600
2023-02-11T07:34:35.028Z,22.6400
2023-02-11T07:35:37.296Z,22.6500
2023-02-11T07:36:37.520Z,22.6500
2023-02-11T07:37:39.912Z,22.6600
2023-02-11T07:38:42.322Z,22.6800
2023-02-11T07:39:42.564Z,22.6700
2023-02-11T07:40:44.907Z,22.6600
2023-02-11T07:41:47.293Z,22.6900
2023-02-11T07:42:49.673Z,22.6700
2023-02-11T07:43:52.062Z,22.6600
2023-02-11T07:44:52.292Z,22.6500
2023-02-11T07:45:54.647Z,22.6700
2023-02-11T07:46:57.056Z,22.6800
2023-02-11T07:47:57.214Z,22.6800
2023-02-11T07:48:59.596Z,22.6800
2023-02-11T07:50:02.006Z,22.6700
2023-02-11T07:51:02.154Z,22.6500
2023-02-11T07:52:04.544Z,22.6100
2023-02-11T07:53:06.895Z,22.6200
2023-02-11T07:54:07.168Z,22.6400
2023-02-11T07:55:09.585Z,22.6600
2023-02-11T07:56:11.938Z,22.6900
2023-02-11T07:57:12.177Z,22.6800
2023-02-11T07:58:14.590Z,22.7100
2023-02-11T07:59:16.979Z,22.7000
2023-02-11T08:00:19.985Z,22.6700
2023-02-11T08:01:19.646Z,22.6600
2023-02-11T08:02:21.976Z,22.6400
2023-02-11T08:03:22.204Z,22.6700
2023-02-11T08:04:24.507Z,22.6800
2023-02-11T08:05:26.858Z,22.7100
2023-02-11T08:06:27.021Z,22.7000
2023-02-11T08:07:29.357Z,22.7000
2023-02-11T08:08:31.782Z,22.6700
2023-02-11T08:09:34.443Z,22.6700
2023-02-11T08:10:34.477Z,22.6800
2023-02-11T08:11:36.848Z,22.7200
2023-02-11T08:12:37.067Z,22.7500
2023-02-11T08:13:39.437Z,22.7300
2023-02-11T08:14:41.824Z,22.6900
2023-02-11T08:15:42.138Z,22.6900
2023-02-11T08:16:44.407Z,22.6800
2023-02-11T08:17:46.734Z,22.7000
2023-02-11T08:18:46.921Z,22.7400
2023-02-11T08:19:49.340Z,22.7400
2023-02-11T08:20:52.071Z,22.7000
2023-02-11T08:21:54.195Z,22.7000
2023-02-11T08:22:56.577Z,22.7300
2023-02-11T08:23:56.862Z,22.6900
2023-02-11T08:24:59.332Z,22.6900
2023-02-11T08:26:01.734Z,22.7100
2023-02-11T08:27:04.082Z,22.7200
2023-02-11T08:28:06.501Z,22.7100
2023-02-11T08:29:08.765Z,22.7100
2023-02-11T08:30:11.157Z,22.6900
2023-02-11T08:31:13.697Z,22.7000
2023-02-11T08:32:13.835Z,22.7000
2023-02-11T08:33:16.150Z,22.7200
2023-02-11T08:34:18.567Z,22.7700
2023-02-11T08:35:18.784Z,22.8100
2023-02-11T08:36:21.293Z,22.8900
2023-02-11T08:37:23.523Z,22.9000
2023-02-11T08:38:23.748Z,22.9200
2023-02-11T08:39:26.092Z,22.9400
2023-02-11T08:40:28.457Z,22.9600
2023-02-11T08:41:28.668Z,22.9400
2023-02-11T08:42:31.000Z,22.9700
2023-02-11T08:43:33.301Z,23.0000
2023-02-11T08:44:33.476Z,22.9900
2023-02-11T08:45:35.911Z,22.9900
2023-02-11T08:46:38.287Z,22.9600
2023-02-11T08:47:40.554Z,22.9500
2023-02-11T08:48:42.946Z,22.9000
2023-02-11T08:49:45.318Z,22.8800
2023-02-11T08:50:45.624Z,22.8700
2023-02-11T08:51:48.135Z,22.8500
2023-02-11T08:52:50.443Z,22.8600
2023-02-11T08:53:52.874Z,22.8500
2023-02-11T08:54:55.288Z,22.8600
2023-02-11T08:55:55.575Z,22.8800
2023-02-11T08:56:58.000Z,22.8800
2023-02-11T08:58:00.366Z,22.8700
2023-02-11T08:59:02.815Z,22.8200
2023-02-11T09:00:05.229Z,22.7600
2023-02-11T09:01:05.510Z,22.7500
2023-02-11T09:02:07.982Z,22.7500
2023-02-11T09:03:10.329Z,22.7400
2023-02-11T09:04:12.727Z,22.7800
2023-02-11T09:05:15.146Z,22.8000
2023-02-11T09:06:15.540Z,22.8400
2023-02-11T09:07:17.781Z,22.9100
2023-02-11T09:08:20.105Z,22.9500
2023-02-11T09:09:20.312Z,22.9500
2023-02-11T09:10:22.706Z,22.9300
2023-02-11T09:11:25.020Z,22.9200
2023-02-11T09:12:25.227Z,22.9000
2023-02-11T09:13:27.593Z,22.9000
2023-02-11T09:14:29.961Z,22.9500
2023-02-11T09:15:30.256Z,22.9700
2023-02-11T09:16:32.752Z,22.9900
2023-02-11T09:17:35.151Z,22.7900
2023-02-11T09:18:37.503Z,22.6800
2023-02-11T09:19:39.957Z,22.6900
2023-02-11T09:20:40.183Z,22.7200
2023-02-11T09:21:42.689Z,22.7700
2023-02-11T09:22:45.120Z,22.8300
2023-02-11T09:23:47.543Z,22.8800
2023-02-11T09:24:49.920Z,22.9200
2023-02-11T09:25:50.586Z,22.9600
2023-02-11T09:26:52.581Z,23.0000
2023-02-11T09:27:55.044Z,23.0300
2023-02-11T09:28:57.445Z,23.0700
2023-02-11T09:29:59.916Z,23.1000
2023-02-11T09:31:02.435Z,23.1100
2023-02-11T09:32:06.638Z,23.1400
2023-02-11T09:33:05.219Z,23.1300
2023-02-11T09:34:07.494Z,23.1700
2023-02-11T09:35:09.912Z,23.1900
2023-02-11T09:36:09.686Z,23.1900
2023-02-11T09:37:10.368Z,23.3300
2023-02-11T09:38:12.715Z,23.4100
2023-02-11T09:39:14.972Z,23.4600
2023-02-11T09:40:17.285Z,23.5000
2023-02-11T09:41:19.601Z,23.5200
2023-02-11T09:42:19.774Z,23.5200
2023-02-11T09:43:22.163Z,23.5100
2023-02-11T09:44:24.308Z,23.4900
2023-02-11T09:45:26.634Z,23.4500
2023-02-11T09:46:29.011Z,23.4700
2023-02-11T09:47:31.276Z,23.4700
2023-02-11T09:48:31.508Z,23.4400
2023-02-11T09:49:33.782Z,23.4700
2023-02-11T09:50:36.120Z,23.4800
2023-02-11T09:51:38.447Z,23.4800
2023-02-11T09:52:40.792Z,23.4600
2023-02-11T09:53:43.170Z,23.4600
2023-02-11T09:54:43.318Z,23.4600
2023-02-11T09:55:45.649Z,23.4800
2023-02-11T09:56:47.960Z,23.5000
2023-02-11T09:57:50.331Z,23.5100
2023-02-11T09:58:52.673Z,23.5200
2023-02-11T09:59:52.797Z,23.5300
2023-02-11T10:00:55.128Z,23.5500
2023-02-11T10:01:57.487Z,23.5300
2023-02-11T10:02:59.834Z,23.5200
2023-02-11T10:04:02.341Z,23.5300
2023-02-11T10:05:02.434Z,23.5300
2023-02-11T10:06:04.789Z,23.5400
2023-02-11T10:07:07.156Z,23.5400
2023-02-11T10:08:09.551Z,23.5300
2023-02-11T10:09:11.951Z,23.5400
2023-02-11T10:10:12.145Z,23.5400
2023-02-11T10:11:29.662Z,23.5400
2023-02-11T10:12:16.931Z,23.5300
2023-02-11T10:13:19.354Z,23.5600
2023-02-11T10:14:21.804Z,23.5500
2023-02-11T10:15:24.177Z,23.5500
2023-02-11T10:16:26.578Z,23.5500
2023-02-11T10:17:28.973Z,23.5500
2023-02-11T10:18:31.389Z,23.5700
2023-02-11T10:19:31.685Z,23.5600
2023-02-11T10:20:34.099Z,23.5800
2023-02-11T10:21:36.567Z,23.5900
2023-02-11T10:22:38.888Z,23.5900
2023-02-11T10:23:39.052Z,23.5800
2023-02-11T10:24:41.461Z,23.5800
2023-02-11T10:25:45.375Z,23.6000
2023-02-11T10:26:46.127Z,23.6300
2023-02-11T10:27:48.388Z,23.6500
2023-02-11T10:28:48.627Z,23.6600
2023-02-11T10:29:50.964Z,23.6900
2023-02-11T10:30:53.906Z,23.6600
2023-02-11T10:31:58.198Z,23.6500
2023-02-11T10:32:57.927Z,23.6600
2023-02-11T10:34:00.332Z,23.5600
2023-02-11T10:35:00.555Z,23.5800
2023-02-11T10:36:02.873Z,23.6000
2023-02-11T10:37:05.171Z,23.6200
2023-02-11T10:38:07.492Z,23.5600
2023-02-11T10:39:09.829Z,23.4500
2023-02-11T10:40:10.041Z,23.4800
2023-02-11T10:41:12.338Z,23.5500
2023-02-11T10:42:14.671Z,23.5800
2023-02-11T10:43:17.019Z,23.6100
2023-02-11T10:44:19.417Z,23.6300
2023-02-11T10:45:19.602Z,23.6600
2023-02-11T10:46:21.937Z,23.6600
2023-02-11T10:47:24.233Z,23.6800
2023-02-11T10:48:26.622Z,23.7100
2023-02-11T10:49:29.040Z,23.7100
2023-02-11T10:50:29.314Z,23.7000
2023-02-11T10:51:31.757Z,23.7000
2023-02-11T10:52:34.191Z,23.7100
2023-02-11T10:53:34.446Z,23.7200
2023-02-11T10:54:36.854Z,23.7300
2023-02-11T10:55:39.421Z,23.7400
2023-02-11T10:56:39.563Z,23.7500
2023-02-11T10:57:42.000Z,23.7900
2023-02-11T10:58:44.406Z,23.7800
2023-02-11T10:59:46.863Z,23.8100
2023-02-11T11:00:47.109Z,23.8300
2023-02-11T11:01:49.560Z,23.8600
2023-02-11T11:02:51.903Z,23.8800
2023-02-11T11:03:54.311Z,23.8900
2023-02-11T11:04:54.650Z,23.9100
2023-02-11T11:05:58.586Z,23.9000
2023-02-11T11:06:59.363Z,23.8800
2023-02-11T11:08:01.807Z,23.9200
2023-02-11T11:09:02.087Z,23.9500
2023-02-11T11:10:04.496Z,23.9100
2023-02-11T11:11:06.909Z,23.8500
2023-02-11T11:12:09.308Z,23.8200
2023-02-11T11:13:09.563Z,23.7500
2023-02-11T11:14:11.995Z,23.7000
2023-02-11T11:15:14.429Z,23.6500
2023-02-11T11:16:14.830Z,23.6700
2023-02-11T11:17:17.074Z,23.6800
2023-02-11T11:18:22.558Z,23.6800
2023-02-11T11:19:21.909Z,23.7100
2023-02-11T11:20:22.176Z,23.7300
2023-02-11T11:21:24.718Z,23.7500
2023-02-11T11:22:27.020Z,23.7700
2023-02-11T11:23:29.453Z,23.7700
2023-02-11T11:24:29.769Z,23.7900
2023-02-11T11:25:32.137Z,23.8000
2023-02-11T11:26:34.582Z,23.8200
2023-02-11T11:28:45.775Z,23.8100
2023-02-11T11:29:48.096Z,23.8000
2023-02-11T11:30:49.812Z,23.8000
2023-02-11T11:31:50.652Z,23.8100
2023-02-11T11:32:52.904Z,23.8100
2023-02-11T11:33:55.239Z,23.7900
2023-02-11T11:34:57.589Z,23.8100
2023-02-11T11:35:57.799Z,23.8200
2023-02-11T11:37:00.128Z,23.8300
2023-02-11T11:38:02.425Z,23.8200
2023-02-11T11:39:04.721Z,23.8300
2023-02-11T11:40:06.947Z,23.8500
2023-02-11T11:41:09.229Z,23.8600
2023-02-11T11:42:11.641Z,23.8500
2023-02-11T11:43:11.678Z,23.8400
2023-02-11T11:44:13.995Z,23.8700
2023-02-11T11:45:16.314Z,23.8700
2023-02-11T11:46:18.771Z,23.8800
2023-02-11T11:47:21.040Z,23.9100
2023-02-11T11:48:21.178Z,23.9200
2023-02-11T11:49:23.497Z,23.9300
2023-02-11T11:50:25.872Z,23.9500
2023-02-11T11:51:28.173Z,23.9600
2023-02-11T11:52:30.528Z,23.9900
2023-02-11T11:53:32.826Z,24.0200
2023-02-11T11:54:33.006Z,24.0300
2023-02-11T11:55:35.368Z,24.0300
2023-02-11T11:56:37.752Z,24.0400
2023-02-11T11:57:40.151Z,24.0400
2023-02-11T11:58:42.490Z,24.0500
2023-02-11T11:59:42.707Z,24.0700
2023-02-11T12:00:45.034Z,24.0700
2023-02-11T12:01:47.441Z,24.0800
2023-02-11T12:02:49.873Z,24.0800
2023-02-11T12:03:49.986Z,24.1100
2023-02-11T12:04:52.316Z,24.1300
2023-02-11T12:05:54.651Z,24.1300
2023-02-11T12:06:56.997Z,24.1300
2023-02-11T12:07:59.311Z,24.1300
2023-02-11T12:08:59.419Z,24.1300
2023-02-11T12:10:01.730Z,24.1200
2023-02-11T12:11:04.054Z,24.1300
2023-02-11T12:12:06.347Z,24.1200
2023-02-11T12:13:08.649Z,24.1200
2023-02-11T12:14:10.927Z,24.1500
2023-02-11T12:15:13.215Z,24.1500
2023-02-11T12:16:13.975Z,24.1300
2023-02-11T12:17:15.733Z,24.1600
2023-02-11T12:18:18.042Z,24.1700
2023-02-11T12:19:20.383Z,24.1600
2023-02-11T12:20:22.727Z,24.1800
2023-02-11T12:21:22.889Z,24.2000
2023-02-11T12:22:25.197Z,24.2300
2023-02-11T12:23:27.688Z,24.2400
2023-02-11T12:24:29.946Z,24.2300
2023-02-11T12:25:32.312Z,24.2600
2023-02-11T12:26:32.471Z,24.2700
2023-02-11T12:27:34.850Z,24.2700
2023-02-11T12:28:37.276Z,24.2900